Latest Weather Observations for Flinders Reef

IDQ60801

Issued at 12:32 pm EST Monday 27 March 2017 (issued every 30 minutes, with the page automatically refreshed every 10 minutes)

About weather observations | Map of weather stations | Latest weather observations for QLD | Other Formats
Station Details ID: 200783 Name: FLINDERS REEF Lat: -17.72 Lon: 148.45 Height: 2.6 m
Data from the previous 72 hours. | See also: Recent months at Flinders Reef
Date/Time
EST
Temp
°C
App
Temp
°C
Dew
Point
°C
Rel
Hum
%
Delta-T
°C
Wind Press
QNH
hPa
Press
MSL
hPa
Rain since
9am
mm
Dir  Spd
km/h
Gust
km/h
Spd
kts
Gust
kts
27/12:30pm 28.5 - - - - W 52 65 28 35 1002.8 - -
27/12:24pm 28.7 - - - - W 54 52 29 28 1002.8 1002.7 -
27/12:00pm 29.0 - - - - W 54 63 29 34 1002.8 - -
27/11:30am 28.9 - - - - W 57 67 31 36 1003.3 - -
27/11:24am 28.8 - - - - W 56 - 30 - - 1003.3 -
27/11:00am 28.5 - - - - W 56 67 30 36 1003.7 - -
27/10:30am 28.2 - - - - W 52 65 28 35 1004.0 - -
27/10:24am 28.1 - - - - W 52 - 28 - - 1004.0 -
27/10:00am 28.0 - - - - W 50 61 27 33 1004.3 - -
27/09:30am 27.9 - - - - WSW 54 65 29 35 1004.4 - -
27/09:24am 27.9 - - - - WSW 52 - 28 - - 1004.5 -
27/09:00am 27.9 - - - - WSW 52 67 28 36 1004.5 - -
27/08:30am 27.8 - - - - WSW 57 67 31 36 1004.5 - -
27/08:24am 27.6 - - - - WSW 59 - 32 - - 1004.3 -
27/08:00am 27.8 - - - - WSW 61 70 33 38 1004.0 - -
27/07:41am 27.9 - - - - WSW 57 76 31 41 1003.8 - -
27/07:30am 28.0 - - - - WSW 56 69 30 37 1003.7 - -
27/07:24am 28.1 - - - - W 54 - 29 - - 1003.6 -
27/07:00am 28.2 - - - - WSW 57 67 31 36 1003.3 - -
27/06:30am 27.6 - - - - WSW 56 65 30 35 1003.1 - -
27/06:24am 27.5 - - - - WSW 57 - 31 - - 1003.2 -
27/06:00am 27.5 - - - - WSW 59 70 32 38 1002.7 - -
27/05:30am 26.8 - - - - WSW 56 67 30 36 1002.8 - -
27/05:24am 27.0 - - - - WSW 57 - 31 - - 1002.8 -
27/05:00am 26.5 - - - - W 59 70 32 38 1002.8 - -
27/04:30am 26.6 - - - - WSW 57 67 31 36 1002.8 - -
27/04:24am 26.7 - - - - WSW 57 - 31 - - 1002.7 -
27/04:00am 27.8 - - - - WSW 52 61 28 33 1002.5 - -
27/03:30am 28.3 - - - - WSW 57 69 31 37 1002.8 - -
27/03:24am 28.2 - - - - WSW 57 - 31 - - 1002.7 -
27/03:00am 28.4 - - - - WSW 59 67 32 36 1002.5 - -
27/02:30am 27.8 - - - - WSW 54 67 29 36 1002.6 - -
27/02:24am 27.7 - - - - WSW 57 - 31 - - 1002.6 -
27/02:00am 28.1 - - - - WSW 56 69 30 37 1002.7 - -
27/01:30am 26.9 - - - - WSW 52 65 28 35 1003.1 - -
27/01:27am 27.0 - - - - SW 54 72 29 39 1003.2 - -
27/01:24am 27.1 - - - - SW 57 - 31 - - 1003.3 -
27/01:00am 27.7 - - - - SW 59 72 32 39 1003.9 - -
27/12:30am 28.2 - - - - SW 54 65 29 35 1004.1 - -
27/12:24am 28.0 - - - - SW 56 - 30 - - 1004.1 -
27/12:00am 27.9 - - - - SW 57 70 31 38 1004.5 - -
 
Date/Time
EST
Temp
°C
App
Temp
°C
Dew
Point
°C
Rel
Hum
%
Delta-T
°C
Wind Press
QNH
hPa
Press
MSL
hPa
Rain since
9am
mm
Dir  Spd
km/h
Gust
km/h
Spd
kts
Gust
kts
26/11:30pm 28.4 - - - - SW 56 69 30 37 1004.9 - -
26/11:24pm 28.8 - - - - SW 61 - 33 - - 1004.6 -
26/11:00pm 29.0 - - - - SW 61 74 33 40 1004.6 - -
26/10:32pm 28.7 - - - - SW 61 80 33 43 1004.6 - -
26/10:30pm 28.9 - - - - SW 59 72 32 39 1004.8 - -
26/10:24pm 29.0 - - - - SW 61 - 33 - - 1004.5 -
26/10:00pm 29.1 - - - - SW 56 65 30 35 1004.6 - -
26/09:47pm 28.9 - - - - SW 61 80 33 43 1004.7 - -
26/09:30pm 29.2 - - - - SW 57 69 31 37 1004.8 - -
26/09:24pm 29.2 - - - - SW 54 - 29 - - 1004.7 -
26/09:00pm 29.3 - - - - SW 56 69 30 37 1004.8 - -
26/08:30pm 28.8 - - - - SW 54 69 29 37 1004.7 - -
26/08:24pm 28.8 - - - - SW 57 - 31 - - 1004.4 -
26/08:00pm 28.5 - - - - SW 57 74 31 40 1004.3 - -
26/07:30pm 27.1 - - - - SW 54 63 29 34 1004.2 - -
26/07:24pm 27.0 - - - - SW 56 - 30 - - 1004.0 -
26/07:00pm 27.0 - - - - SW 61 72 33 39 1003.6 - -
26/06:32pm 28.0 - - - - SW 56 74 30 40 1003.4 - -
26/06:30pm 27.9 - - - - SW 57 74 31 40 1003.5 - -
26/06:24pm 28.0 - - - - SW 59 - 32 - - 1003.3 -
26/06:00pm 28.2 - - - - SW 52 65 28 35 1002.9 - -
26/05:30pm 27.8 - - - - SW 54 65 29 35 1002.8 - -
26/05:24pm 27.4 - - - - SW 57 - 31 - - 1002.5 -
26/05:00pm 27.9 - - - - SW 57 69 31 37 1002.0 - -
26/04:30pm 28.0 - - - - SW 56 69 30 37 1002.1 - -
26/04:24pm 27.9 - - - - SW 57 - 31 - - 1001.9 -
26/04:00pm 28.1 - - - - SW 57 69 31 37 1001.9 - -
26/03:30pm 28.2 - - - - SW 54 63 29 34 1002.5 - -
26/03:24pm 27.8 - - - - SW 54 - 29 - - 1002.4 -
26/03:00pm 28.0 - - - - SW 54 65 29 35 1002.4 - -
26/02:30pm 27.6 - - - - SW 50 59 27 32 1002.8 - -
26/02:24pm 27.7 - - - - SW 48 - 26 - - 1002.8 -
26/02:00pm 27.4 - - - - SSW 54 63 29 34 1003.4 - -
26/01:50pm 27.4 - - - - SSW 57 76 31 41 1003.8 - -
26/01:30pm 28.3 - - - - SW 59 70 32 38 1003.6 - -
26/01:24pm 27.9 - - - - SW 57 - 31 - - 1003.3 -
26/01:00pm 27.7 - - - - SW 54 65 29 35 1003.4 - -
26/12:30pm 28.2 - - - - SW 57 69 31 37 1004.2 - -
26/12:24pm 28.1 - - - - SW 57 - 31 - - 1004.1 -
26/12:00pm 28.2 - - - - SW 54 65 29 35 1004.7 - -
26/11:30am 28.3 - - - - SW 54 61 29 33 1005.3 - -
26/11:24am 28.4 - - - - SW 54 - 29 - - 1005.3 -
26/11:00am 28.3 - - - - SW 52 59 28 32 1005.7 - -
26/10:30am 28.4 - - - - SW 50 63 27 34 1005.8 - -
26/10:24am 28.3 - - - - SW 50 - 27 - - 1005.9 -
26/10:00am 28.5 - - - - SW 52 61 28 33 1005.9 - -
26/09:30am 28.4 - - - - SSW 57 69 31 37 1006.5 - -
26/09:24am 28.4 - - - - SSW 56 - 30 - - 1006.3 -
26/09:00am 28.2 - - - - SSW 52 65 28 35 1006.3 - -
26/08:30am 28.2 - - - - SW 54 61 29 33 1006.2 - -
26/08:24am 28.2 - - - - SW 56 - 30 - - 1006.1 -
26/08:07am 27.9 - - - - SW 50 69 27 37 1005.8 - -
26/08:00am 27.7 - - - - SW 54 69 29 37 1005.9 - -
26/07:30am 27.9 - - - - SSW 56 69 30 37 1005.6 - -
26/07:24am 27.9 - - - - SSW 56 - 30 - - 1005.3 -
26/07:00am 27.5 - - - - SW 54 63 29 34 1005.3 - -
26/06:41am 27.8 - - - - SSW 50 72 27 39 1005.3 - -
26/06:30am 28.1 - - - - S 44 54 24 29 1005.0 - -
26/06:24am 28.2 - - - - S 48 - 26 - - 1005.0 -
26/06:01am 27.8 - - - - S 35 54 19 29 1005.0 - -
26/06:00am 28.0 - - - - S 33 46 18 25 1005.0 - -
26/05:30am 27.1 - - - - S 46 54 25 29 1004.8 - -
26/05:24am 26.8 - - - - S 50 - 27 - - 1004.8 -
26/05:00am 25.5 - - - - S 46 61 25 33 1004.8 - -
26/04:50am 27.3 - - - - S 48 67 26 36 1004.8 - -
26/04:30am 27.2 - - - - S 44 59 24 32 1004.4 - -
26/04:24am 27.2 - - - - S 46 - 25 - - 1004.1 -
26/04:13am 27.8 - - - - S 50 74 27 40 1004.4 - -
26/04:00am 27.6 - - - - S 43 56 23 30 1004.7 - -
26/03:45am 27.8 - - - - S 48 67 26 36 1004.5 - -
26/03:30am 28.1 - - - - S 43 52 23 28 1004.6 - -
26/03:24am 28.1 - - - - S 41 - 22 - - 1004.7 -
26/03:23am 28.1 - - - - S 41 48 22 26 1004.8 - -
26/03:05am 25.5 - - - - SSE 50 70 27 38 1005.1 - -
26/03:02am 26.0 - - - - SSE 59 70 32 38 1005.1 - -
26/03:01am 27.2 - - - - S 48 70 26 38 1005.1 - -
26/03:00am 28.2 - - - - S 46 57 25 31 1004.9 - -
26/02:30am 27.8 - - - - S 52 63 28 34 1004.9 - -
26/02:24am 27.5 - - - - SSW 52 - 28 - - 1004.6 -
26/02:00am 28.3 - - - - S 48 57 26 31 1004.9 - -
26/01:30am 28.7 - - - - S 48 63 26 34 1005.0 - -
26/01:24am 28.7 - - - - S 50 - 27 - - 1005.0 -
26/01:00am 28.7 - - - - S 52 63 28 34 1005.2 - -
26/12:30am 28.5 - - - - S 52 63 28 34 1005.6 - -
26/12:24am 28.5 - - - - S 54 - 29 - - 1005.7 -
26/12:00am 28.0 - - - - S 56 67 30 36 1006.3 - -
 
Date/Time
EST
Temp
°C
App
Temp
°C
Dew
Point
°C
Rel
Hum
%
Delta-T
°C
Wind Press
QNH
hPa
Press
MSL
hPa
Rain since
9am
mm
Dir  Spd
km/h
Gust
km/h
Spd
kts
Gust
kts
25/11:30pm 28.6 - - - - S 50 65 27 35 1006.6 - -
25/11:24pm 28.2 - - - - S 52 - 28 - - 1006.7 -
25/11:11pm 28.1 - - - - S 54 76 29 41 1007.0 - -
25/11:00pm 28.9 - - - - S 46 56 25 30 1007.2 - -
25/10:50pm 28.0 - - - - S 46 65 25 35 1007.3 - -
25/10:30pm 28.6 - - - - S 50 61 27 33 1007.3 - -
25/10:24pm 28.4 - - - - S 50 - 27 - - 1007.3 -
25/10:00pm 28.8 - - - - S 48 57 26 31 1007.4 - -
25/09:30pm 28.6 - - - - S 48 57 26 31 1007.3 - -
25/09:24pm 28.7 - - - - S 46 - 25 - - 1007.2 -
25/09:00pm 28.6 - - - - SSE 48 57 26 31 1007.4 - -
25/08:30pm 28.0 - - - - SSE 48 54 26 29 1007.4 - -
25/08:24pm 27.9 - - - - SSE 48 - 26 - - 1007.2 -
25/08:00pm 28.4 - - - - SSE 50 59 27 32 1006.9 - -
25/07:30pm 28.6 - - - - S 46 54 25 29 1006.6 - -
25/07:24pm 28.6 - - - - S 46 - 25 - - 1006.5 -
25/07:00pm 28.8 - - - - S 48 57 26 31 1006.4 - -
25/06:30pm 28.5 - - - - S 48 57 26 31 1006.1 - -
25/06:24pm 28.7 - - - - S 46 - 25 - - 1005.8 -
25/06:00pm 28.9 - - - - S 48 56 26 30 1005.8 - -
25/05:30pm 28.7 - - - - S 44 54 24 29 1005.4 - -
25/05:24pm 29.1 - - - - S 48 - 26 - - 1005.2 -
25/05:00pm 28.7 - - - - S 46 57 25 31 1005.2 - -
25/04:30pm 28.8 - - - - S 48 57 26 31 1005.1 - -
25/04:24pm 28.7 - - - - S 46 - 25 - - 1004.9 -
25/04:00pm 28.5 - - - - S 44 54 24 29 1005.0 - -
25/03:30pm 28.3 - - - - S 43 48 23 26 1005.0 - -
25/03:24pm 28.5 - - - - S 43 - 23 - - 1004.8 -
25/03:00pm 28.4 - - - - S 43 50 23 27 1005.0 - -
25/02:30pm 29.1 - - - - S 48 57 26 31 1004.7 - -
25/02:24pm 29.0 - - - - S 50 - 27 - - 1004.7 -
25/02:00pm 28.8 - - - - S 46 56 25 30 1005.1 - -
25/01:30pm 29.1 - - - - S 50 56 27 30 1005.2 - -
25/01:24pm 29.1 - - - - S 48 - 26 - - 1005.1 -
25/01:00pm 29.1 - - - - S 50 59 27 32 1005.3 - -
25/12:30pm 29.1 - - - - SSE 48 57 26 31 1005.7 - -
25/12:24pm 28.9 - - - - SSE 46 - 25 - - 1005.6 -
25/12:00pm 29.0 - - - - S 46 54 25 29 1006.2 - -
25/11:30am 28.8 - - - - S 48 56 26 30 1006.6 - -
25/11:24am 28.7 - - - - S 48 - 26 - - 1006.5 -
25/11:00am 27.8 - - - - SSE 41 46 22 25 1007.1 - -
25/10:30am 28.6 - - - - SSE 41 67 22 36 1007.5 - -
25/10:24am 28.7 - - - - S 41 - 22 - - 1007.4 -
25/10:00am 28.9 - - - - S 41 50 22 27 1007.8 - -
25/09:30am 28.8 - - - - SSE 44 52 24 28 1007.9 - -
25/09:24am 29.0 - - - - S 41 - 22 - - 1007.8 -
25/09:00am 28.3 - - - - SSE 41 50 22 27 1007.8 - -
25/08:33am 27.7 - - - - S 39 57 21 31 1007.8 - -
25/08:30am 27.3 - - - - S 43 57 23 31 1007.8 - -
25/08:24am 27.0 - - - - S 41 - 22 - - 1007.6 -
25/08:00am 27.9 - - - - S 44 67 24 36 1007.1 - -
25/07:59am 28.6 - - - - S 43 61 23 33 1007.3 - -
25/07:30am 28.8 - - - - S 46 54 25 29 1006.6 - -
25/07:24am 28.8 - - - - S 46 - 25 - - 1006.4 -
25/07:00am 28.4 - - - - S 44 54 24 29 1006.1 - -
25/06:30am 27.4 - - - - S 33 46 18 25 1006.0 - -
25/06:25am 26.7 - - - - S 33 43 18 23 1005.9 - -
25/06:24am 26.9 - - - - S 35 - 19 - - 1005.8 -
25/06:00am 26.9 - - - - SSE 46 56 25 30 1005.9 - -
25/05:30am 28.4 - - - - S 39 44 21 24 1005.6 - -
25/05:24am 28.3 - - - - S 39 - 21 - - 1005.5 -
25/05:00am 27.5 - - - - S 32 44 17 24 1005.4 - -
25/04:40am 26.1 - - - - S 43 61 23 33 1005.5 - -
25/04:30am 26.2 - - - - SSE 50 65 27 35 1005.5 - -
25/04:24am 27.2 - - - - S 39 65 21 35 1005.4 1005.3 -
25/04:00am 28.1 - - - - S 35 39 19 21 1005.6 - -
25/03:30am 28.0 - - - - S 35 43 19 23 1005.5 - -
25/03:24am 28.1 - - - - S 35 - 19 - - 1005.5 -
25/03:00am 27.2 - - - - S 37 46 20 25 1005.4 - -
25/02:30am 26.6 - - - - S 41 48 22 26 1005.9 - -
25/02:24am 26.7 - - - - S 43 - 23 - - 1005.8 -
25/02:22am 26.7 - - - - S 43 50 23 27 1005.9 - -
25/02:00am 27.0 - - - - SE 35 46 19 25 1006.1 - -
25/01:52am 27.4 - - - - SSE 33 44 18 24 1006.4 - -
25/01:49am 28.1 - - - - S 37 44 20 24 1006.2 - -
25/01:44am 26.9 - - - - SSE 26 48 14 26 1006.5 - -
25/01:30am 27.4 - - - - S 37 44 20 24 1006.2 - -
25/01:24am 27.2 - - - - S 35 - 19 - - 1006.3 -
25/01:00am 26.2 - - - - S 50 65 27 35 1006.6 - -
25/12:46am 29.0 - - - - S 43 61 23 33 1006.7 - -
25/12:30am 29.1 - - - - S 41 50 22 27 1006.7 - -
25/12:24am 29.2 - - - - S 43 - 23 - - 1006.5 -
25/12:00am 29.1 - - - - S 41 46 22 25 1006.8 - -
 
Date/Time
EST
Temp
°C
App
Temp
°C
Dew
Point
°C
Rel
Hum
%
Delta-T
°C
Wind Press
QNH
hPa
Press
MSL
hPa
Rain since
9am
mm
Dir  Spd
km/h
Gust
km/h
Spd
kts
Gust
kts
24/11:30pm 29.0 - - - - S 43 52 23 28 1007.1 - -
24/11:24pm 29.0 - - - - S 41 - 22 - - 1007.0 -
24/11:00pm 29.0 - - - - S 37 46 20 25 1007.1 - -
24/10:30pm 28.5 - - - - SSE 32 37 17 20 1007.6 - -
24/10:24pm 28.5 - - - - SSE 33 - 18 - - 1007.5 -
24/10:00pm 27.7 - - - - SSE 43 54 23 29 1007.8 - -
24/09:30pm 27.9 - - - - SE 35 43 19 23 1008.0 - -
24/09:24pm 27.5 - - - - SSE 26 - 14 - - 1007.8 -
24/09:10pm 28.7 - - - - SSE 33 57 18 31 1007.8 - -
24/09:00pm 29.1 - - - - SSE 32 35 17 19 1007.7 - -
24/08:30pm 28.9 - - - - SSE 37 44 20 24 1007.6 - -
24/08:24pm 29.0 - - - - SSE 37 - 20 - - 1007.4 -
24/08:00pm 28.9 - - - - SE 33 39 18 21 1007.3 - -
24/07:30pm 28.1 - - - - SSE 37 44 20 24 1007.0 - -
24/07:24pm 28.4 - - - - SSE 39 - 21 - - 1006.8 -
24/07:00pm 28.5 - - - - SE 37 43 20 23 1006.8 - -
24/06:30pm 28.4 - - - - SE 35 43 19 23 1006.7 - -
24/06:24pm 28.3 - - - - SE 35 - 19 - - 1006.5 -
24/06:00pm 27.3 - - - - ESE 41 50 22 27 1006.6 - -
24/05:51pm 27.6 - - - - SE 30 50 16 27 1006.6 - -
24/05:30pm 26.7 - - - - SE 30 52 16 28 1006.4 - -
24/05:24pm 25.8 - - - - SSE 30 61 16 33 1006.5 1006.4 -
24/05:17pm 27.1 - - - - SSE 56 61 30 33 1006.3 - -
24/05:15pm 28.5 - - - - SE 32 56 17 30 1006.2 - -
24/05:00pm 28.6 - - - - SSE 32 37 17 20 1006.0 - -
24/04:30pm 27.9 - - - - SE 37 43 20 23 1005.9 - -
24/04:24pm 27.8 - - - - SE 39 - 21 - - 1005.8 -
24/04:00pm 28.7 - - - - SSE 35 41 19 22 1005.7 - -
24/03:30pm 28.6 - - - - SSE 35 43 19 23 1005.7 - -
24/03:24pm 28.5 - - - - SSE 35 - 19 - - 1005.5 -
24/03:00pm 28.2 - - - - SSE 33 37 18 20 1005.9 - -
24/02:30pm 27.4 - - - - S 32 37 17 20 1006.1 - -
24/02:24pm 27.5 - - - - S 32 - 17 - - 1006.1 -
24/02:00pm 27.5 - - - - S 28 33 15 18 1006.4 - -
24/01:30pm 27.2 - - - - SSE 26 32 14 17 1006.5 - -
24/01:24pm 27.4 - - - - SE 30 - 16 - - 1006.6 -
24/01:00pm 25.5 - - - - SE 46 67 25 36 1007.4 - -
24/12:59pm 25.4 - - - - SE 50 69 27 37 1007.4 - -
24/12:50pm 26.9 - - - - SSE 52 69 28 37 1007.0 - -
24/12:47pm 28.8 - - - - S 30 48 16 26 1007.2 - -

Other Formats:

Comma delimited format used in spreadsheet applications
http://www.bom.gov.au/fwo/IDQ60801/IDQ60801.94290.axf

JavaScript Object Notation format (JSON) in row-major order
http://www.bom.gov.au/fwo/IDQ60801/IDQ60801.94290.json